Time;durP1;ratioP1;P1;durP2;ratioP2;P2;SDS_P1;SDS_P2;PMS_P1;PMS_P2;Temp;Humidity;BMP_temperature;BMP_pressure;BME280_temperature;BME280_humidity;BME280_pressure;Samples;Min_cycle;Max_cycle;Signal;HPM_P1;HPM_P2
2024/01/07 00:02:19;;;;;;;27.48;12.40;;;;;;;4.39;100.00;101641.97;5276229;28;20036;-74
2024/01/07 00:04:50;;;;;;;24.17;12.15;;;;;;;4.33;100.00;101645.06;5276453;27;20377;-74
2024/01/07 00:07:20;;;;;;;24.67;12.63;;;;;;;4.29;100.00;101643.56;5276514;28;20032;-73
2024/01/07 00:09:51;;;;;;;27.98;12.82;;;;;;;4.21;100.00;101640.59;5273880;27;20020;-73
2024/01/07 00:12:22;;;;;;;25.17;12.60;;;;;;;4.16;100.00;101645.34;5275031;28;20024;-73
2024/01/07 00:14:52;;;;;;;24.58;12.35;;;;;;;4.17;100.00;101649.75;5275674;27;20380;-73
2024/01/07 00:17:23;;;;;;;27.70;13.32;;;;;;;4.14;100.00;101660.56;5275251;28;20028;-73
2024/01/07 00:19:54;;;;;;;25.48;13.25;;;;;;;4.16;100.00;101664.78;5275911;27;20028;-73
2024/01/07 00:22:24;;;;;;;23.95;12.48;;;;;;;4.12;100.00;101660.69;5274270;28;20081;-73
2024/01/07 00:24:55;;;;;;;25.67;12.70;;;;;;;4.07;100.00;101667.25;5274261;27;20084;-74
2024/01/07 00:27:26;;;;;;;24.42;12.27;;;;;;;4.05;100.00;101663.84;5276761;28;20106;-74
2024/01/07 00:29:56;;;;;;;22.73;11.43;;;;;;;4.05;100.00;101666.50;5273840;27;20020;-74
2024/01/07 00:32:26;;;;;;;24.25;12.57;;;;;;;4.00;100.00;101669.47;5276282;28;20374;-73
2024/01/07 00:34:57;;;;;;;23.65;12.57;;;;;;;4.00;100.00;101671.25;5275319;27;20027;-74
2024/01/07 00:37:27;;;;;;;25.98;13.23;;;;;;;3.94;100.00;101674.34;5276869;28;20516;-74
2024/01/07 00:39:58;;;;;;;23.48;11.88;;;;;;;3.90;100.00;101677.19;5273492;28;20824;-73
2024/01/07 00:42:28;;;;;;;26.60;12.73;;;;;;;3.88;100.00;101676.44;5274681;28;20031;-73
2024/01/07 00:44:59;;;;;;;26.70;12.38;;;;;;;3.84;100.00;101682.06;5274727;28;20028;-74
2024/01/07 00:47:29;;;;;;;24.75;11.70;;;;;;;3.81;100.00;101671.66;5276877;28;20111;-73
2024/01/07 00:50:00;;;;;;;25.17;11.75;;;;;;;3.74;100.00;101684.47;5274273;27;20031;-74
2024/01/07 00:52:30;;;;;;;25.42;11.50;;;;;;;3.73;100.00;101687.25;5274939;28;20115;-73
2024/01/07 00:55:03;;;;;;;24.20;11.88;;;;;;;3.69;100.00;101691.91;5274581;27;20024;-73
2024/01/07 00:57:33;;;;;;;26.50;12.95;;;;;;;3.69;100.00;101689.25;5277227;28;20036;-73
2024/01/07 01:00:06;;;;;;;23.00;11.38;;;;;;;3.72;100.00;101693.50;5274471;28;20508;-73
2024/01/07 01:02:37;;;;;;;21.90;10.98;;;;;;;3.73;100.00;101696.06;5279295;28;20066;-73
2024/01/07 01:05:08;;;;;;;25.52;12.27;;;;;;;3.73;100.00;101690.75;5271763;28;20048;-73
2024/01/07 01:07:38;;;;;;;20.42;10.80;;;;;;;3.71;100.00;101702.41;5274993;28;20081;-74
2024/01/07 01:10:09;;;;;;;22.92;11.20;;;;;;;3.69;100.00;101694.56;5270905;28;20051;-74
2024/01/07 01:12:40;;;;;;;25.15;11.40;;;;;;;3.67;100.00;101703.59;5271867;28;20396;-74
2024/01/07 01:15:10;;;;;;;26.15;10.93;;;;;;;3.66;100.00;101693.91;5270852;28;20051;-74
2024/01/07 01:17:41;;;;;;;24.48;10.35;;;;;;;3.67;100.00;101698.28;5268486;28;20043;-74
2024/01/07 01:20:11;;;;;;;29.73;13.15;;;;;;;3.70;100.00;101706.00;5271445;28;20142;-73
2024/01/07 01:22:42;;;;;;;21.00;11.10;;;;;;;3.68;100.00;101700.81;5272817;28;20032;-74
2024/01/07 01:25:12;;;;;;;24.38;11.55;;;;;;;3.66;100.00;101710.66;5275526;28;20024;-74
2024/01/07 01:27:44;;;;;;;22.05;11.15;;;;;;;3.60;100.00;101711.91;5283891;28;20027;-74
2024/01/07 01:30:15;;;;;;;23.20;12.65;;;;;;;3.60;100.00;101717.22;5274372;28;20028;-73
2024/01/07 01:32:45;;;;;;;24.17;12.52;;;;;;;3.61;100.00;101713.66;5273563;28;20028;-73
2024/01/07 01:35:16;;;;;;;24.92;12.40;;;;;;;3.61;100.00;101718.94;5275113;27;20027;-75
2024/01/07 01:37:46;;;;;;;27.33;12.82;;;;;;;3.61;100.00;101718.94;5272036;28;20032;-74
2024/01/07 01:40:17;;;;;;;29.38;13.10;;;;;;;3.59;100.00;101720.00;5279390;28;20028;-74
2024/01/07 01:42:48;;;;;;;30.88;14.48;;;;;;;3.55;100.00;101723.78;5268720;28;20544;-74
2024/01/07 01:45:19;;;;;;;36.13;15.00;;;;;;;3.58;100.00;101728.91;5280284;27;20023;-74
2024/01/07 01:47:49;;;;;;;33.90;16.05;;;;;;;3.57;100.00;101733.38;5279329;28;20507;-74
2024/01/07 01:50:20;;;;;;;35.60;15.23;;;;;;;3.53;100.00;101733.66;5275869;28;20089;-74
2024/01/07 01:52:51;;;;;;;33.78;16.55;;;;;;;3.54;100.00;101735.34;5280503;28;20023;-74
2024/01/07 01:55:22;;;;;;;37.28;16.67;;;;;;;3.53;100.00;101741.63;5279046;28;20023;-74
2024/01/07 01:57:54;;;;;;;37.22;17.10;;;;;;;3.52;100.00;101738.13;5277473;28;20031;-74
2024/01/07 02:00:25;;;;;;;32.33;16.10;;;;;;;3.53;100.00;101737.16;5279687;28;20028;-74
2024/01/07 02:02:56;;;;;;;37.55;16.65;;;;;;;3.54;100.00;101738.84;5272919;28;20508;-74
2024/01/07 02:05:27;;;;;;;36.83;16.70;;;;;;;3.56;100.00;101742.25;5275006;28;20516;-74
2024/01/07 02:07:58;;;;;;;37.72;16.77;;;;;;;3.50;100.00;101742.66;5274656;28;20026;-74
2024/01/07 02:10:42;;;;;;;34.45;16.85;;;;;;;3.48;100.00;101741.91;5273103;28;20032;-74
2024/01/07 02:13:12;;;;;;;46.92;19.98;;;;;;;3.46;100.00;101740.28;5284291;28;20038;-74
2024/01/07 02:15:44;;;;;;;42.03;19.55;;;;;;;3.46;100.00;101745.59;5278743;28;20554;-74
2024/01/07 02:18:33;;;;;;;46.45;20.77;;;;;;;3.41;100.00;101748.53;5278481;28;20120;-75
2024/01/07 02:21:04;;;;;;;43.53;19.40;;;;;;;3.48;100.00;101746.38;5268678;28;20038;-74
2024/01/07 02:23:54;;;;;;;43.13;20.00;;;;;;;3.46;100.00;101745.59;5277572;28;20032;-74
2024/01/07 02:26:38;;;;;;;46.63;20.23;;;;;;;3.47;100.00;101752.63;5281494;28;20508;-74
2024/01/07 02:29:09;;;;;;;44.50;20.85;;;;;;;3.41;100.00;101753.00;5279760;28;20035;-74
2024/01/07 02:31:39;;;;;;;43.35;19.63;;;;;;;3.42;100.00;101754.72;5271742;28;20507;-74
2024/01/07 02:34:10;;;;;;;47.63;20.38;;;;;;;3.41;100.00;101760.97;5275259;28;20425;-74
2024/01/07 02:36:42;;;;;;;47.58;19.05;;;;;;;3.42;100.00;101760.03;5276212;28;20057;-73
2024/01/07 02:39:12;;;;;;;54.15;19.15;;;;;;;3.32;100.00;101760.63;5272390;28;20028;-74
2024/01/07 02:41:43;;;;;;;54.38;20.42;;;;;;;3.31;100.00;101758.91;5273464;28;20051;-74
2024/01/07 02:44:13;;;;;;;48.22;19.23;;;;;;;3.31;100.00;101763.34;5277140;28;20024;-74
2024/01/07 02:46:46;;;;;;;51.13;19.88;;;;;;;3.32;100.00;101763.25;5277985;28;20064;-74
2024/01/07 02:49:16;;;;;;;53.17;19.40;;;;;;;3.32;100.00;101768.56;5278222;28;20473;-74
2024/01/07 02:51:49;;;;;;;48.47;20.58;;;;;;;3.30;100.00;101767.78;5271166;28;20030;-74
2024/01/07 02:54:19;;;;;;;49.35;20.05;;;;;;;3.25;100.00;101769.03;5277786;28;20027;-73
2024/01/07 02:56:50;;;;;;;47.92;21.50;;;;;;;3.25;100.00;101772.53;5277252;28;20128;-73
2024/01/07 02:59:21;;;;;;;51.13;19.75;;;;;;;3.24;100.00;101773.50;5277212;28;20165;-74
2024/01/07 03:01:51;;;;;;;53.50;21.88;;;;;;;3.26;100.00;101776.03;5280178;28;20030;-74
2024/01/07 03:04:22;;;;;;;49.45;20.42;;;;;;;3.22;100.00;101780.72;5279369;28;20034;-74
2024/01/07 03:06:52;;;;;;;48.22;19.75;;;;;;;3.22;100.00;101771.91;5273138;28;20069;-74
2024/01/07 03:09:23;;;;;;;51.65;20.00;;;;;;;3.23;100.00;101782.41;5277891;28;20031;-73
2024/01/07 03:11:54;;;;;;;49.75;20.02;;;;;;;3.29;100.00;101778.50;5275999;27;20035;-73
2024/01/07 03:14:24;;;;;;;47.10;19.60;;;;;;;3.28;100.00;101788.28;5282952;28;20028;-73
2024/01/07 03:16:55;;;;;;;51.10;20.67;;;;;;;3.26;100.00;101784.88;5268904;28;20140;-73
2024/01/07 03:19:26;;;;;;;50.78;19.48;;;;;;;3.28;100.00;101790.06;5271502;28;20078;-73
2024/01/07 03:21:56;;;;;;;51.65;20.60;;;;;;;3.28;100.00;101793.56;5278980;28;20016;-72
2024/01/07 03:24:27;;;;;;;46.50;20.45;;;;;;;3.26;100.00;101806.09;5278401;28;20023;-73
2024/01/07 03:26:57;;;;;;;48.75;19.85;;;;;;;3.26;100.00;101808.75;5280594;28;20020;-73
2024/01/07 03:29:28;;;;;;;50.40;20.15;;;;;;;3.20;100.00;101808.25;5279047;28;20038;-73
2024/01/07 03:31:58;;;;;;;48.80;20.30;;;;;;;3.24;100.00;101807.13;5271236;28;20475;-73
2024/01/07 03:34:29;;;;;;;52.95;21.27;;;;;;;3.20;100.00;101814.41;5271214;28;20031;-75
2024/01/07 03:36:59;;;;;;;50.97;20.70;;;;;;;3.18;100.00;101813.66;5275431;28;20512;-74
2024/01/07 03:39:33;;;;;;;55.08;21.52;;;;;;;3.18;100.00;101810.16;5279977;28;20031;-74
2024/01/07 03:42:05;;;;;;;53.42;20.95;;;;;;;3.16;100.00;101815.53;5276195;28;20369;-74
2024/01/07 03:44:36;;;;;;;50.45;20.02;;;;;;;3.19;100.00;101809.22;5279324;28;20024;-74
2024/01/07 03:47:06;;;;;;;53.95;21.33;;;;;;;3.20;100.00;101814.41;5273851;28;20032;-74
2024/01/07 03:49:37;;;;;;;54.25;20.75;;;;;;;3.20;100.00;101817.06;5275077;28;20031;-74
2024/01/07 03:52:08;;;;;;;50.30;19.85;;;;;;;3.24;100.00;101815.06;5272372;28;20031;-74
2024/01/07 03:54:39;;;;;;;53.20;21.15;;;;;;;3.20;100.00;101819.72;5276505;28;20066;-73
2024/01/07 03:57:09;;;;;;;47.80;20.05;;;;;;;3.21;100.00;101825.84;5268009;28;20114;-73
2024/01/07 03:59:40;;;;;;;52.67;20.73;;;;;;;3.21;100.00;101823.22;5275153;28;20027;-73
2024/01/07 04:02:11;;;;;;;52.83;21.38;;;;;;;3.15;100.00;101821.78;5276421;28;20553;-73
2024/01/07 04:04:42;;;;;;;50.78;19.60;;;;;;;3.20;100.00;101832.97;5270795;28;20037;-73
2024/01/07 04:07:13;;;;;;;50.88;20.48;;;;;;;3.20;100.00;101829.47;5270982;28;20660;-73
2024/01/07 04:09:44;;;;;;;52.55;20.60;;;;;;;3.15;100.00;101832.41;5273781;28;20031;-73
2024/01/07 04:12:14;;;;;;;51.60;20.88;;;;;;;3.12;100.00;101837.91;5278854;28;20031;-73
2024/01/07 04:14:45;;;;;;;52.47;21.70;;;;;;;3.17;100.00;101837.63;5275289;28;20028;-73
2024/01/07 04:17:16;;;;;;;49.20;19.85;;;;;;;3.19;100.00;101844.53;5274467;28;20031;-74
2024/01/07 04:19:46;;;;;;;54.13;22.42;;;;;;;3.12;100.00;101843.22;5275129;28;20034;-74
2024/01/07 04:22:17;;;;;;;51.53;20.98;;;;;;;3.10;100.00;101842.44;5270645;28;20032;-74
2024/01/07 04:24:47;;;;;;;54.65;22.02;;;;;;;3.11;100.00;101849.44;5276612;28;20049;-74
2024/01/07 04:27:18;;;;;;;52.25;21.77;;;;;;;3.11;100.00;101838.81;5276692;28;20081;-73
2024/01/07 04:29:48;;;;;;;52.65;21.10;;;;;;;3.09;100.00;101844.22;5269520;28;20024;-74
2024/01/07 04:32:20;;;;;;;54.95;21.60;;;;;;;3.10;100.00;101845.94;5274749;27;20032;-74
2024/01/07 04:34:50;;;;;;;58.20;23.58;;;;;;;3.10;100.00;101845.09;5275816;28;20031;-74
2024/01/07 04:37:21;;;;;;;56.95;21.98;;;;;;;3.14;100.00;101845.75;5277378;28;20038;-73
2024/01/07 04:39:51;;;;;;;52.83;21.45;;;;;;;3.11;100.00;101844.13;5272967;28;20036;-73
2024/01/07 04:42:22;;;;;;;54.45;21.25;;;;;;;3.11;100.00;101852.09;5276872;28;20027;-73
2024/01/07 04:44:52;;;;;;;54.20;22.42;;;;;;;3.09;100.00;101843.38;5271864;28;20032;-73
2024/01/07 04:47:31;;;;;;;58.58;22.95;;;;;;;3.14;100.00;101851.06;5281828;28;20495;-73
2024/01/07 04:50:03;;;;;;;53.58;20.92;;;;;;;3.16;100.00;101855.31;5272648;28;20031;-73
2024/01/07 04:52:34;;;;;;;57.30;22.50;;;;;;;3.13;100.00;101857.31;5280822;28;20024;-73
2024/01/07 04:55:05;;;;;;;64.22;23.75;;;;;;;3.03;100.00;101857.88;5275127;28;20041;-73
2024/01/07 04:57:35;;;;;;;59.30;24.75;;;;;;;3.03;100.00;101862.31;5275059;27;20012;-73
2024/01/07 05:00:06;;;;;;;61.88;23.70;;;;;;;3.01;100.00;101861.53;5278596;28;20411;-73
2024/01/07 05:02:37;;;;;;;59.45;22.92;;;;;;;3.07;100.00;101861.19;5281802;28;20034;-74
2024/01/07 05:05:08;;;;;;;60.40;24.77;;;;;;;3.03;100.00;101859.69;5278105;28;20028;-74
2024/01/07 05:07:39;;;;;;;60.60;23.67;;;;;;;3.03;100.00;101862.31;5279162;28;20046;-74
2024/01/07 05:10:10;;;;;;;55.75;21.85;;;;;;;3.05;100.00;101866.56;5276261;28;20031;-73
2024/01/07 05:12:40;;;;;;;55.60;23.17;;;;;;;3.08;100.00;101868.19;5277457;28;20038;-74
2024/01/07 05:15:11;;;;;;;65.13;23.27;;;;;;;3.12;100.00;101875.03;5267833;28;20073;-74
2024/01/07 05:17:41;;;;;;;66.85;23.67;;;;;;;3.10;100.00;101872.44;5276653;28;20084;-74
2024/01/07 05:20:15;;;;;;;72.65;23.63;;;;;;;3.14;100.00;101877.59;5271183;28;20097;-74
2024/01/07 05:22:46;;;;;;;55.50;22.77;;;;;;;3.15;100.00;101882.78;5272187;28;20019;-74
2024/01/07 05:25:16;;;;;;;61.42;23.42;;;;;;;3.13;100.00;101886.47;5278593;28;20549;-74
2024/01/07 05:27:47;;;;;;;63.72;22.90;;;;;;;3.04;100.00;101888.72;5278239;28;20031;-74
2024/01/07 05:30:17;;;;;;;65.78;24.02;;;;;;;3.03;100.00;101896.78;5274099;28;20392;-74
2024/01/07 05:32:48;;;;;;;57.65;21.85;;;;;;;3.01;100.00;101901.31;5268119;28;20438;-74
2024/01/07 05:35:18;;;;;;;64.00;23.98;;;;;;;2.98;100.00;101902.38;5281455;28;20019;-74
2024/01/07 05:37:49;;;;;;;61.47;20.83;;;;;;;2.96;100.00;101901.63;5279704;28;20034;-74
2024/01/07 05:40:19;;;;;;;60.70;21.10;;;;;;;2.98;100.00;101907.66;5281179;27;20035;-74
2024/01/07 05:42:50;;;;;;;66.05;22.52;;;;;;;2.92;100.00;101909.84;5277838;28;20031;-74
2024/01/07 05:45:21;;;;;;;60.60;21.13;;;;;;;2.95;100.00;101915.78;5276250;28;20044;-73
2024/01/07 05:47:52;;;;;;;68.43;22.15;;;;;;;2.92;100.00;101920.44;5276058;28;20026;-74
2024/01/07 05:50:22;;;;;;;66.90;22.67;;;;;;;2.95;100.00;101922.88;5275496;28;20039;-73
2024/01/07 05:52:53;;;;;;;62.60;21.92;;;;;;;2.99;100.00;101927.06;5270511;28;20020;-74
2024/01/07 05:55:23;;;;;;;60.03;21.55;;;;;;;3.00;100.00;101939.38;5275860;28;20027;-74
2024/01/07 05:57:54;;;;;;;61.08;22.30;;;;;;;3.04;100.00;101938.25;5272890;27;20030;-74
2024/01/07 06:00:24;;;;;;;64.88;23.38;;;;;;;3.03;100.00;101933.91;5274768;28;20028;-74
2024/01/07 06:02:55;;;;;;;71.30;24.05;;;;;;;3.05;100.00;101942.59;5275711;28;20666;-74
2024/01/07 06:05:25;;;;;;;75.55;24.33;;;;;;;3.00;100.00;101942.03;5274811;28;20031;-74
2024/01/07 06:07:55;;;;;;;74.32;25.13;;;;;;;3.00;100.00;101945.53;5273271;28;20107;-74
2024/01/07 06:10:26;;;;;;;75.50;23.75;;;;;;;3.03;100.00;101940.06;5274980;28;20404;-72
2024/01/07 06:12:56;;;;;;;79.68;27.23;;;;;;;3.00;100.00;101944.69;5278604;28;20043;-73
2024/01/07 06:15:27;;;;;;;76.00;25.27;;;;;;;3.02;100.00;101946.31;5274495;28;20035;-73
2024/01/07 06:17:57;;;;;;;74.88;25.13;;;;;;;3.08;100.00;101951.25;5276690;28;20024;-73
2024/01/07 06:20:28;;;;;;;83.00;28.70;;;;;;;3.03;100.00;101957.75;5273948;28;20028;-73
2024/01/07 06:22:59;;;;;;;74.93;26.95;;;;;;;3.04;100.00;101955.00;5274136;28;20020;-73
2024/01/07 06:25:29;;;;;;;77.68;26.45;;;;;;;3.03;100.00;101955.97;5277047;28;20028;-73
2024/01/07 06:28:00;;;;;;;84.78;28.20;;;;;;;3.00;100.00;101953.47;5275783;28;20032;-73
2024/01/07 06:30:30;;;;;;;79.47;26.50;;;;;;;3.01;100.00;101972.91;5270842;28;20032;-73
2024/01/07 06:33:01;;;;;;;81.07;26.50;;;;;;;3.06;100.00;101965.53;5270755;28;20666;-73
2024/01/07 06:35:31;;;;;;;72.25;25.58;;;;;;;3.00;100.00;101974.69;5279134;28;20028;-72
2024/01/07 06:38:02;;;;;;;76.03;26.05;;;;;;;2.99;100.00;101975.63;5273956;28;20504;-73
2024/01/07 06:40:32;;;;;;;77.57;25.73;;;;;;;2.96;100.00;101983.78;5275499;28;20023;-73
2024/01/07 06:43:03;;;;;;;81.80;24.88;;;;;;;2.98;100.00;101984.53;5274745;28;20019;-73
2024/01/07 06:45:33;;;;;;;73.97;24.17;;;;;;;2.98;100.00;101984.53;5277604;28;20040;-73
2024/01/07 06:48:04;;;;;;;79.13;25.35;;;;;;;3.07;100.00;101993.78;5268021;28;20039;-73
2024/01/07 06:50:35;;;;;;;76.25;25.52;;;;;;;3.09;100.00;101991.88;5276927;28;20039;-73
2024/01/07 06:53:05;;;;;;;77.57;26.48;;;;;;;3.14;100.00;101999.56;5272639;28;20031;-74
2024/01/07 06:55:36;;;;;;;81.72;26.95;;;;;;;3.07;100.00;101997.28;5276382;28;20467;-73
2024/01/07 06:58:07;;;;;;;75.30;28.20;;;;;;;3.06;100.00;102005.28;5274752;28;20107;-73
2024/01/07 07:00:37;;;;;;;89.13;29.27;;;;;;;3.06;100.00;102003.53;5273590;28;20098;-73
2024/01/07 07:03:08;;;;;;;80.90;27.77;;;;;;;3.06;100.00;102011.47;5276039;28;20423;-73
2024/01/07 07:05:39;;;;;;;75.88;26.13;;;;;;;2.99;100.00;102014.56;5271147;28;20440;-73
2024/01/07 07:08:09;;;;;;;75.38;26.45;;;;;;;3.00;100.00;102027.72;5275396;28;20020;-72
2024/01/07 07:10:40;;;;;;;69.38;23.10;;;;;;;3.00;100.00;102034.81;5269250;28;20469;-72
2024/01/07 07:13:11;;;;;;;73.68;24.70;;;;;;;3.06;100.00;102034.44;5274177;28;20063;-72
2024/01/07 07:15:42;;;;;;;71.40;23.30;;;;;;;3.01;100.00;102033.88;5278497;28;20103;-72
2024/01/07 07:18:12;;;;;;;92.82;29.08;;;;;;;3.01;100.00;102034.75;5275049;28;20036;-72
2024/01/07 07:20:43;;;;;;;83.70;28.42;;;;;;;2.99;100.00;102038.41;5274871;28;20435;-72
2024/01/07 07:23:13;;;;;;;91.97;28.55;;;;;;;3.02;100.00;102041.75;5270081;28;20028;-72
2024/01/07 07:25:44;;;;;;;85.40;29.40;;;;;;;3.04;100.00;102042.50;5277996;28;20023;-72
2024/01/07 07:28:17;;;;;;;77.57;27.65;;;;;;;3.03;100.00;102043.47;5277315;28;20019;-73
2024/01/07 07:30:47;;;;;;;67.95;24.33;;;;;;;3.09;100.00;102051.06;5271559;28;20030;-74
2024/01/07 07:33:18;;;;;;;68.88;23.33;;;;;;;3.10;100.00;102060.72;5277206;28;20019;-73
2024/01/07 07:35:48;;;;;;;74.05;23.55;;;;;;;3.08;100.00;102051.16;5270141;27;20114;-73
2024/01/07 07:38:19;;;;;;;71.15;24.02;;;;;;;3.07;100.00;102062.69;5269130;28;20016;-73
2024/01/07 07:40:52;;;;;;;61.33;22.80;;;;;;;3.05;100.00;102064.56;5267606;28;20034;-73
2024/01/07 07:43:23;;;;;;;65.50;22.58;;;;;;;2.95;100.00;102074.00;5267497;28;20151;-73
2024/01/07 07:45:53;;;;;;;59.53;21.65;;;;;;;2.97;100.00;102064.19;5263990;28;20032;-73
2024/01/07 07:48:26;;;;;;;63.55;21.45;;;;;;;3.01;100.00;102073.63;5267539;28;20034;-73
2024/01/07 07:50:56;;;;;;;61.88;21.30;;;;;;;2.95;100.00;102074.00;5273808;28;20560;-73
2024/01/07 07:53:26;;;;;;;57.60;21.42;;;;;;;2.91;100.00;102083.06;5273445;28;20028;-73
2024/01/07 07:55:57;;;;;;;58.85;20.75;;;;;;;2.95;100.00;102089.91;5268027;28;20028;-73
2024/01/07 07:58:28;;;;;;;52.92;20.45;;;;;;;2.91;100.00;102085.69;5277079;28;20479;-73
2024/01/07 08:00:58;;;;;;;53.35;19.95;;;;;;;2.87;100.00;102086.84;5270388;28;20654;-73
2024/01/07 08:03:29;;;;;;;51.08;20.42;;;;;;;2.91;100.00;102093.66;5275257;28;20046;-73
2024/01/07 08:05:59;;;;;;;50.28;19.83;;;;;;;2.83;100.00;102091.44;5268745;28;20077;-73
2024/01/07 08:08:30;;;;;;;50.67;19.25;;;;;;;2.83;100.00;102102.91;5258615;28;20016;-73
2024/01/07 08:11:01;;;;;;;47.83;19.30;;;;;;;2.81;100.00;102098.63;5264350;28;20027;-73
2024/01/07 08:13:31;;;;;;;42.75;18.92;;;;;;;2.79;100.00;102105.81;5269425;28;20036;-73
2024/01/07 08:16:02;;;;;;;43.55;18.55;;;;;;;2.83;100.00;102115.31;5266214;28;20024;-73
2024/01/07 08:18:32;;;;;;;45.50;17.23;;;;;;;2.80;100.00;102113.66;5274160;28;20153;-73
2024/01/07 08:21:03;;;;;;;43.33;18.33;;;;;;;2.76;100.00;102114.81;5268596;27;20028;-73
2024/01/07 08:23:34;;;;;;;40.70;17.35;;;;;;;2.77;100.00;102121.81;5275840;27;20043;-73
2024/01/07 08:26:04;;;;;;;52.28;19.65;;;;;;;2.81;100.00;102120.69;5276167;28;20047;-73
2024/01/07 08:28:35;;;;;;;39.35;17.52;;;;;;;2.80;100.00;102118.97;5273894;28;20032;-73
2024/01/07 08:31:07;;;;;;;46.00;18.85;;;;;;;2.86;100.00;102128.38;5270391;28;20040;-73
2024/01/07 08:33:37;;;;;;;46.80;19.08;;;;;;;2.85;100.00;102122.22;5279279;28;20666;-73
2024/01/07 08:36:08;;;;;;;43.53;18.80;;;;;;;2.83;100.00;102133.84;5274932;28;20031;-73
2024/01/07 08:38:39;;;;;;;50.55;19.88;;;;;;;2.83;100.00;102137.38;5276973;28;20027;-74
2024/01/07 08:41:09;;;;;;;44.33;18.95;;;;;;;2.81;100.00;102148.97;5271358;28;20555;-73
2024/01/07 08:43:40;;;;;;;46.45;19.30;;;;;;;2.76;100.00;102148.38;5275207;28;20015;-73
2024/01/07 08:46:13;;;;;;;44.83;18.42;;;;;;;2.73;100.00;102146.75;5275350;28;20517;-73
2024/01/07 08:48:44;;;;;;;42.80;19.02;;;;;;;2.74;100.00;102151.13;5278877;28;20031;-73
2024/01/07 08:51:15;;;;;;;42.58;19.25;;;;;;;2.71;100.00;102166.31;5274235;28;20032;-73
2024/01/07 08:53:46;;;;;;;47.17;20.67;;;;;;;2.69;100.00;102158.47;5277177;28;20032;-73
2024/01/07 08:56:18;;;;;;;49.13;20.50;;;;;;;2.68;100.00;102159.41;5270915;28;20035;-73
2024/01/07 08:58:48;;;;;;;50.22;20.40;;;;;;;2.69;100.00;102162.91;5274750;28;20027;-73
2024/01/07 09:01:19;;;;;;;49.55;19.85;;;;;;;2.69;100.00;102154.97;5274257;28;20023;-73
2024/01/07 09:03:50;;;;;;;44.33;18.27;;;;;;;2.68;100.00;102167.34;5274643;28;20103;-73
2024/01/07 09:06:20;;;;;;;42.58;19.88;;;;;;;2.67;100.00;102170.94;5270346;28;20444;-73
2024/01/07 09:08:51;;;;;;;50.83;20.88;;;;;;;2.71;100.00;102183.09;5269761;28;20107;-73
2024/01/07 09:11:21;;;;;;;49.50;20.85;;;;;;;2.69;100.00;102179.66;5274770;28;20060;-73
2024/01/07 09:13:52;;;;;;;49.20;21.17;;;;;;;2.64;100.00;102180.84;5270635;28;20027;-73
2024/01/07 09:16:22;;;;;;;52.85;20.63;;;;;;;2.60;100.00;102180.16;5271923;28;20027;-73
2024/01/07 09:18:53;;;;;;;48.78;22.00;;;;;;;2.58;100.00;102190.84;5269993;28;20023;-73
2024/01/07 09:21:24;;;;;;;52.15;21.70;;;;;;;2.59;100.00;102189.88;5274508;28;20028;-73
2024/01/07 09:23:54;;;;;;;49.60;20.92;;;;;;;2.57;100.00;102193.56;5271942;28;20036;-73
2024/01/07 09:26:24;;;;;;;52.25;22.15;;;;;;;2.58;100.00;102205.88;5270332;28;20035;-73
2024/01/07 09:28:55;;;;;;;54.75;21.88;;;;;;;2.61;100.00;102205.72;5264238;28;20020;-73
2024/01/07 09:31:27;;;;;;;49.75;21.42;;;;;;;2.57;100.00;102206.81;5271311;28;20038;-73
2024/01/07 09:33:58;;;;;;;49.45;20.48;;;;;;;2.57;100.00;102215.63;5270626;28;20047;-73
2024/01/07 09:36:29;;;;;;;60.53;23.02;;;;;;;2.58;100.00;102219.13;5271695;28;20084;-73
2024/01/07 09:39:01;;;;;;;54.22;22.15;;;;;;;2.53;100.00;102219.38;5270550;28;20036;-73
2024/01/07 09:41:33;;;;;;;49.85;21.73;;;;;;;2.58;100.00;102216.47;5274010;28;20100;-73
2024/01/07 09:44:04;;;;;;;59.72;23.90;;;;;;;2.55;100.00;102225.44;5266611;28;20020;-73
2024/01/07 09:46:37;;;;;;;53.97;22.70;;;;;;;2.55;100.00;102224.56;5276704;28;20047;-73
2024/01/07 09:49:07;;;;;;;49.00;22.63;;;;;;;2.52;100.00;102225.59;5269392;28;20527;-73
2024/01/07 09:51:40;;;;;;;52.78;23.77;;;;;;;2.64;100.00;102228.53;5273982;28;20023;-73
2024/01/07 09:54:14;;;;;;;51.03;22.02;;;;;;;2.55;100.00;102230.72;5270906;28;20657;-73
2024/01/07 09:56:55;;;;;;;49.03;23.02;;;;;;;2.55;100.00;102238.69;5267429;28;20020;-73
2024/01/07 09:59:29;;;;;;;51.47;21.65;;;;;;;2.55;100.00;102240.47;5272844;28;20028;-73
2024/01/07 10:02:00;;;;;;;45.25;20.90;;;;;;;2.58;100.00;102245.63;5269778;28;20028;-73
2024/01/07 10:04:31;;;;;;;49.20;22.05;;;;;;;2.63;100.00;102248.03;5272070;28;20020;-73
2024/01/07 10:07:01;;;;;;;45.80;20.88;;;;;;;2.66;100.00;102248.75;5270843;28;20556;-73
2024/01/07 10:09:34;;;;;;;47.47;21.55;;;;;;;2.67;100.00;102250.44;5271126;28;20499;-73
2024/01/07 10:12:05;;;;;;;46.92;20.98;;;;;;;2.65;100.00;102251.44;5268350;28;20024;-73
2024/01/07 10:14:36;;;;;;;42.00;20.00;;;;;;;2.59;100.00;102260.56;5274916;28;20031;-73
2024/01/07 10:17:16;;;;;;;42.38;17.77;;;;;;;2.63;100.00;102258.63;5269832;28;20032;-73
2024/01/07 10:19:47;;;;;;;38.70;17.45;;;;;;;2.53;100.00;102251.16;5266482;28;20091;-73
2024/01/07 10:22:17;;;;;;;39.53;17.00;;;;;;;2.57;100.00;102255.38;5269466;28;20028;-73
2024/01/07 10:24:51;;;;;;;43.53;16.77;;;;;;;2.58;100.00;102257.06;5270889;28;20027;-73
2024/01/07 10:27:23;;;;;;;31.02;14.52;;;;;;;2.64;100.00;102263.84;5272977;28;20043;-74
2024/01/07 10:29:58;;;;;;;35.40;14.80;;;;;;;2.52;100.00;102268.00;5270639;27;20032;-73
2024/01/07 10:32:29;;;;;;;36.13;16.00;;;;;;;2.54;100.00;102260.81;5273094;28;20472;-73
2024/01/07 10:35:04;;;;;;;34.50;15.43;;;;;;;2.46;100.00;102270.09;5270600;28;20281;-73
2024/01/07 10:37:36;;;;;;;38.38;16.58;;;;;;;2.52;100.00;102267.16;5273260;28;20038;-72
2024/01/07 10:40:07;;;;;;;40.17;16.95;;;;;;;2.55;100.00;102264.31;5249513;28;20040;-73
2024/01/07 10:42:39;;;;;;;34.67;15.10;;;;;;;2.50;100.00;102271.66;5271916;28;20047;-74
2024/01/07 10:45:10;;;;;;;33.45;13.70;;;;;;;2.52;100.00;102264.50;5273438;28;20123;-73
2024/01/07 10:47:46;;;;;;;36.88;14.65;;;;;;;2.55;100.00;102265.16;5271073;28;20058;-74
2024/01/07 10:50:18;;;;;;;31.08;15.07;;;;;;;2.55;100.00;102261.66;5270409;28;20034;-74
2024/01/07 10:52:51;;;;;;;39.45;16.90;;;;;;;2.51;100.00;102260.09;5267176;28;20110;-73
2024/01/07 10:55:24;;;;;;;37.65;15.88;;;;;;;2.47;100.00;102264.72;5273950;28;20043;-73
2024/01/07 10:57:56;;;;;;;38.33;17.33;;;;;;;2.49;100.00;102272.59;5267960;28;20031;-72
2024/01/07 11:00:27;;;;;;;39.20;16.73;;;;;;;2.53;100.00;102271.50;5270487;28;20021;-73
2024/01/07 11:03:11;;;;;;;38.85;15.35;;;;;;;2.58;100.00;102277.41;5270742;28;20061;-73
2024/01/07 11:05:56;;;;;;;36.95;15.63;;;;;;;2.55;100.00;102275.75;5268600;28;20401;-73
2024/01/07 11:08:27;;;;;;;34.22;16.08;;;;;;;2.56;100.00;102272.22;5269583;28;20092;-73
2024/01/07 11:11:06;;;;;;;34.58;15.75;;;;;;;2.54;100.00;102282.00;5269523;28;20032;-72
2024/01/07 11:13:38;;;;;;;37.08;15.48;;;;;;;2.57;100.00;102283.66;5266609;28;20107;-73
2024/01/07 11:16:09;;;;;;;37.70;15.27;;;;;;;2.60;100.00;102280.81;5268033;28;20046;-73
2024/01/07 11:18:46;;;;;;;35.47;15.65;;;;;;;2.61;100.00;102277.28;5271616;28;20019;-73
2024/01/07 11:21:24;;;;;;;34.55;15.48;;;;;;;2.60;100.00;102275.53;5269955;28;20085;-73
2024/01/07 11:23:55;;;;;;;34.45;14.90;;;;;;;2.62;100.00;102283.41;5270614;28;20036;-73
2024/01/07 11:26:29;;;;;;;32.15;14.77;;;;;;;2.66;100.00;102279.66;5268484;28;20554;-73
2024/01/07 11:29:00;;;;;;;35.85;14.75;;;;;;;2.55;100.00;102282.88;5268699;28;20102;-73